Time;durP1;ratioP1;P1;durP2;ratioP2;P2;SDS_P1;SDS_P2;PMS_P1;PMS_P2;Temp;Humidity;BMP_temperature;BMP_pressure;BME280_temperature;BME280_humidity;BME280_pressure;Samples;Min_cycle;Max_cycle;Signal;HPM_P1;HPM_P2
2021/10/30 00:02:17;;;;;;;3.95;3.20;;;12.50;99.90;;;;;;5058927;28;20107;-42
2021/10/30 00:04:42;;;;;;;4.32;3.35;;;12.50;99.90;;;;;;5049060;28;20027;-43
2021/10/30 00:07:08;;;;;;;3.65;3.35;;;12.50;99.90;;;;;;5059469;28;20025;-43
2021/10/30 00:09:33;;;;;;;2.90;2.60;;;12.50;99.90;;;;;;5048163;28;20104;-42
2021/10/30 00:12:00;;;;;;;3.80;3.40;;;12.40;99.90;;;;;;5060381;28;20034;-44
2021/10/30 00:14:26;;;;;;;3.58;3.10;;;12.40;99.90;;;;;;5048125;28;20075;-43
2021/10/30 00:16:52;;;;;;;4.30;3.90;;;12.40;99.90;;;;;;5059753;28;20103;-43
2021/10/30 00:19:17;;;;;;;4.00;3.60;;;12.40;99.90;;;;;;5048480;28;20159;-43
2021/10/30 00:21:43;;;;;;;4.35;3.72;;;12.40;99.90;;;;;;5059613;28;20043;-43
2021/10/30 00:24:09;;;;;;;4.70;4.18;;;12.40;99.90;;;;;;5048448;28;20029;-43
2021/10/30 00:26:34;;;;;;;4.88;4.32;;;12.40;99.90;;;;;;5057167;28;20537;-43
2021/10/30 00:29:00;;;;;;;4.00;3.60;;;12.30;99.90;;;;;;5051603;28;20013;-45
2021/10/30 00:31:25;;;;;;;4.32;3.90;;;12.30;99.90;;;;;;5053104;28;20044;-43
2021/10/30 00:33:51;;;;;;;4.00;3.60;;;12.30;99.90;;;;;;5053460;28;20116;-43
2021/10/30 00:36:16;;;;;;;5.25;4.20;;;12.30;99.90;;;;;;5051564;28;20032;-42
2021/10/30 00:38:42;;;;;;;4.60;4.07;;;12.30;99.90;;;;;;5055785;28;20025;-43
2021/10/30 00:41:09;;;;;;;4.70;4.20;;;12.30;99.90;;;;;;5049166;28;20459;-44
2021/10/30 00:43:35;;;;;;;5.68;3.88;;;12.30;99.90;;;;;;5045622;28;20427;-42
2021/10/30 00:46:01;;;;;;;3.85;3.55;;;12.30;99.90;;;;;;5065614;28;20068;-42
2021/10/30 00:48:27;;;;;;;4.43;3.83;;;12.30;99.90;;;;;;5055942;28;20686;-43
2021/10/30 00:51:01;;;;;;;5.10;4.03;;;12.30;99.90;;;;;;5067057;28;20082;-44
2021/10/30 00:53:32;;;;;;;4.53;3.88;;;12.30;99.90;;;;;;5055511;28;20467;-44
2021/10/30 00:56:00;;;;;;;4.68;3.60;;;12.30;99.90;;;;;;5049038;28;20049;-43
2021/10/30 00:58:29;;;;;;;5.32;4.32;;;12.20;99.90;;;;;;5058992;28;20025;-43
2021/10/30 01:00:55;;;;;;;4.75;3.60;;;12.20;99.90;;;;;;5047021;28;20055;-43
2021/10/30 01:03:21;;;;;;;5.65;4.00;;;12.20;99.90;;;;;;5059539;28;20052;-44
2021/10/30 01:05:47;;;;;;;4.38;3.97;;;12.20;99.90;;;;;;5046924;28;20076;-43
2021/10/30 01:08:15;;;;;;;5.50;4.40;;;12.20;99.90;;;;;;5058699;28;20025;-43
2021/10/30 01:10:41;;;;;;;5.15;4.65;;;12.20;99.90;;;;;;5047574;28;20901;-44
2021/10/30 01:13:07;;;;;;;4.53;3.95;;;12.10;99.90;;;;;;5055818;28;20028;-43
2021/10/30 01:15:35;;;;;;;5.05;4.35;;;12.10;99.90;;;;;;5050223;28;20108;-43
2021/10/30 01:18:01;;;;;;;5.03;4.53;;;12.10;99.90;;;;;;5053456;28;20025;-44
2021/10/30 01:20:26;;;;;;;6.22;4.55;;;12.10;99.90;;;;;;5052099;28;20547;-44
2021/10/30 01:23:02;;;;;;;5.25;4.75;;;12.00;99.90;;;;;;5050821;28;20043;-44
2021/10/30 01:25:29;;;;;;;5.20;4.70;;;12.00;99.90;;;;;;5053547;28;20496;-43
2021/10/30 01:27:58;;;;;;;5.45;4.82;;;11.90;99.90;;;;;;5049186;28;20021;-42
2021/10/30 01:30:23;;;;;;;5.30;4.82;;;11.90;99.90;;;;;;5055814;28;20032;-44
2021/10/30 01:32:54;;;;;;;5.07;4.57;;;11.90;99.90;;;;;;5047989;28;20036;-42
2021/10/30 01:35:28;;;;;;;6.07;5.20;;;11.80;99.90;;;;;;5044566;28;20048;-43
2021/10/30 01:37:55;;;;;;;5.45;4.95;;;11.80;99.90;;;;;;5064991;28;20025;-45
2021/10/30 01:40:21;;;;;;;6.82;5.43;;;11.80;99.90;;;;;;5055807;28;20032;-43
2021/10/30 01:43:05;;;;;;;5.30;4.80;;;11.80;99.90;;;;;;5064387;28;20043;-43
2021/10/30 01:45:31;;;;;;;7.30;5.70;;;11.80;99.90;;;;;;5054989;28;20020;-42
2021/10/30 01:47:57;;;;;;;6.45;5.68;;;11.80;99.90;;;;;;5064619;28;20566;-47
2021/10/30 01:50:24;;;;;;;7.57;6.28;;;11.80;99.90;;;;;;5055181;28;20032;-43
2021/10/30 01:52:50;;;;;;;7.13;6.10;;;11.90;99.90;;;;;;5066330;28;20654;-44
2021/10/30 01:55:18;;;;;;;7.80;6.05;;;11.90;99.90;;;;;;5062145;28;20163;-43
2021/10/30 01:57:45;;;;;;;6.63;5.88;;;11.90;99.90;;;;;;5066360;28;20055;-42
2021/10/30 02:00:14;;;;;;;7.65;5.97;;;11.90;99.90;;;;;;5060504;28;20135;-45
2021/10/30 02:02:40;;;;;;;6.32;5.70;;;11.90;99.90;;;;;;5045494;28;20060;-42
2021/10/30 02:05:06;;;;;;;6.32;5.60;;;11.90;99.90;;;;;;5057340;28;20491;-43
2021/10/30 02:07:32;;;;;;;6.10;5.43;;;11.90;99.90;;;;;;5047470;28;20028;-43
2021/10/30 02:09:58;;;;;;;6.57;5.40;;;11.90;99.90;;;;;;5053219;28;20034;-43
2021/10/30 02:12:23;;;;;;;6.63;5.90;;;11.90;99.90;;;;;;5050144;28;20048;-44
2021/10/30 02:14:49;;;;;;;6.75;5.68;;;11.90;99.90;;;;;;5052479;28;20380;-44
2021/10/30 02:17:14;;;;;;;6.13;5.53;;;11.90;99.90;;;;;;5052052;28;20455;-43
2021/10/30 02:19:40;;;;;;;6.10;5.13;;;11.90;99.90;;;;;;5049074;28;20434;-43
2021/10/30 02:22:05;;;;;;;6.53;5.68;;;11.90;99.90;;;;;;5055770;28;20025;-43
2021/10/30 02:24:32;;;;;;;6.07;5.55;;;11.90;99.90;;;;;;5046510;28;20436;-43
2021/10/30 02:26:58;;;;;;;5.97;5.47;;;11.90;99.90;;;;;;5057412;28;20412;-43
2021/10/30 02:29:24;;;;;;;5.65;5.13;;;11.90;99.90;;;;;;5047321;28;20403;-44
2021/10/30 02:31:49;;;;;;;5.65;5.10;;;12.00;99.90;;;;;;5056800;28;20040;-43
2021/10/30 02:34:15;;;;;;;6.88;5.65;;;12.00;99.90;;;;;;5046311;28;20029;-43
2021/10/30 02:36:40;;;;;;;6.18;5.57;;;12.10;99.90;;;;;;5057734;28;20024;-42
2021/10/30 02:39:10;;;;;;;6.72;5.20;;;12.10;99.90;;;;;;5045715;28;20092;-43
2021/10/30 02:41:37;;;;;;;5.55;5.05;;;12.10;99.90;;;;;;5058197;28;20612;-44
2021/10/30 02:44:03;;;;;;;5.13;4.57;;;12.10;99.90;;;;;;5045956;28;20027;-44
2021/10/30 02:46:29;;;;;;;6.50;4.88;;;12.10;99.90;;;;;;5056407;28;20392;-42
2021/10/30 02:48:54;;;;;;;5.00;4.38;;;12.20;99.90;;;;;;5047403;28;20482;-43
2021/10/30 02:51:20;;;;;;;5.28;4.65;;;12.20;99.90;;;;;;5053883;28;20034;-43
2021/10/30 02:53:46;;;;;;;5.63;4.68;;;12.20;99.90;;;;;;5049194;28;20029;-43
2021/10/30 02:56:11;;;;;;;5.15;4.50;;;12.30;99.90;;;;;;5052456;28;20055;-44
2021/10/30 02:58:37;;;;;;;5.30;4.78;;;12.30;99.90;;;;;;5051849;28;20108;-43
2021/10/30 03:01:03;;;;;;;6.38;5.10;;;12.30;99.90;;;;;;5049334;28;20028;-44
2021/10/30 03:03:28;;;;;;;5.95;4.80;;;12.30;99.90;;;;;;5054813;28;20021;-44
2021/10/30 03:05:54;;;;;;;5.00;4.50;;;12.30;99.90;;;;;;5046091;28;20034;-42
2021/10/30 03:08:20;;;;;;;4.72;4.32;;;12.30;99.90;;;;;;5057209;28;20020;-43
2021/10/30 03:10:45;;;;;;;5.22;4.38;;;12.30;99.90;;;;;;5046478;28;20098;-43
2021/10/30 03:13:11;;;;;;;5.25;4.75;;;12.40;99.90;;;;;;5056591;28;20017;-43
2021/10/30 03:15:36;;;;;;;4.57;4.18;;;12.30;99.90;;;;;;5045715;28;20370;-43
2021/10/30 03:18:02;;;;;;;6.05;4.80;;;12.30;99.90;;;;;;5057935;28;20100;-43
2021/10/30 03:20:27;;;;;;;5.00;4.50;;;12.40;99.90;;;;;;5044903;28;20698;-43
2021/10/30 03:22:53;;;;;;;5.45;3.92;;;12.40;99.90;;;;;;5059999;28;20032;-43
2021/10/30 03:25:22;;;;;;;4.93;4.35;;;12.40;99.90;;;;;;5049860;28;20062;-43
2021/10/30 03:27:47;;;;;;;5.15;4.30;;;12.40;99.90;;;;;;5058522;28;20555;-43
2021/10/30 03:30:13;;;;;;;5.55;5.05;;;12.40;99.90;;;;;;5051151;28;20032;-43
2021/10/30 03:32:41;;;;;;;5.45;4.95;;;12.40;99.90;;;;;;5056627;28;20543;-42
2021/10/30 03:35:07;;;;;;;5.40;4.68;;;12.50;99.90;;;;;;5052756;28;20021;-44
2021/10/30 03:37:34;;;;;;;6.10;5.15;;;12.50;99.90;;;;;;5054486;28;20547;-43
2021/10/30 03:40:00;;;;;;;5.93;4.78;;;12.50;99.90;;;;;;5055382;28;20029;-43
2021/10/30 03:42:26;;;;;;;4.70;4.30;;;12.50;99.90;;;;;;5051366;28;20025;-43
2021/10/30 03:44:56;;;;;;;5.13;4.72;;;12.50;99.90;;;;;;5058302;28;20028;-43
2021/10/30 03:47:22;;;;;;;5.53;5.03;;;12.50;99.90;;;;;;5050003;28;20045;-44
2021/10/30 03:49:47;;;;;;;6.03;4.80;;;12.50;99.90;;;;;;5045689;28;20075;-42
2021/10/30 03:52:13;;;;;;;6.05;5.45;;;12.50;99.90;;;;;;5067139;28;20464;-43
2021/10/30 03:54:39;;;;;;;5.57;5.07;;;12.50;99.90;;;;;;5051306;28;20116;-43
2021/10/30 03:57:05;;;;;;;6.03;5.43;;;12.40;99.90;;;;;;5049058;28;20029;-43
2021/10/30 03:59:30;;;;;;;5.85;5.30;;;12.40;99.90;;;;;;5060926;28;20029;-42
2021/10/30 04:01:56;;;;;;;6.25;5.65;;;12.40;99.90;;;;;;5047979;28;20049;-43
2021/10/30 04:04:21;;;;;;;6.03;5.43;;;12.40;99.90;;;;;;5060653;28;20028;-44
2021/10/30 04:06:47;;;;;;;6.47;5.82;;;12.40;99.90;;;;;;5048025;28;20029;-44
2021/10/30 04:09:12;;;;;;;7.97;6.97;;;12.40;99.90;;;;;;5059058;28;20601;-44
2021/10/30 04:11:38;;;;;;;7.65;5.72;;;12.40;99.90;;;;;;5049960;28;20036;-43
2021/10/30 04:14:03;;;;;;;6.18;5.57;;;12.40;99.90;;;;;;5056401;28;20357;-43
2021/10/30 04:16:29;;;;;;;6.85;6.15;;;12.40;99.90;;;;;;5051977;28;20051;-43
2021/10/30 04:18:58;;;;;;;7.57;6.75;;;12.40;99.90;;;;;;5053615;28;20078;-43
2021/10/30 04:21:24;;;;;;;6.85;6.15;;;12.50;99.90;;;;;;5054716;28;20029;-44
2021/10/30 04:23:49;;;;;;;7.53;6.45;;;12.50;99.90;;;;;;5050802;28;20028;-43
2021/10/30 04:26:15;;;;;;;7.07;6.32;;;12.50;99.90;;;;;;5057115;28;20408;-44
2021/10/30 04:28:40;;;;;;;7.50;6.75;;;12.50;99.90;;;;;;5048678;28;20025;-43
2021/10/30 04:31:08;;;;;;;9.23;7.35;;;12.50;99.90;;;;;;5058860;28;20037;-42
2021/10/30 04:33:35;;;;;;;10.77;8.75;;;12.50;99.90;;;;;;5048448;28;20468;-42
2021/10/30 04:36:13;;;;;;;9.93;8.35;;;12.60;99.90;;;;;;5058869;28;20033;-43
2021/10/30 04:38:39;;;;;;;10.23;7.57;;;12.60;99.90;;;;;;5048395;28;20071;-42
2021/10/30 04:41:04;;;;;;;9.32;7.63;;;12.60;99.90;;;;;;5059065;28;20106;-43
2021/10/30 04:43:30;;;;;;;9.93;7.75;;;12.60;99.90;;;;;;5047657;28;20025;-43
2021/10/30 04:45:55;;;;;;;8.68;7.78;;;12.60;99.90;;;;;;5059369;28;20044;-44
2021/10/30 04:48:21;;;;;;;11.32;9.32;;;12.60;99.90;;;;;;5047616;28;20485;-43
2021/10/30 04:50:46;;;;;;;11.57;9.48;;;12.60;99.90;;;;;;5058998;28;20029;-43
2021/10/30 04:53:12;;;;;;;10.00;7.78;;;12.60;99.90;;;;;;5027699;28;20167;-43
2021/10/30 04:55:38;;;;;;;10.30;8.80;;;12.60;99.90;;;;;;5051218;28;20047;-43
2021/10/30 04:58:03;;;;;;;10.00;8.30;;;12.50;99.90;;;;;;5049197;28;20244;-45
2021/10/30 05:00:29;;;;;;;13.35;9.68;;;12.50;99.90;;;;;;5054236;28;20911;-44
2021/10/30 05:02:55;;;;;;;10.70;9.02;;;12.50;99.90;;;;;;5052633;28;20673;-43
2021/10/30 05:05:20;;;;;;;12.32;9.32;;;12.50;99.90;;;;;;5051276;28;20043;-42
2021/10/30 05:07:46;;;;;;;9.80;8.55;;;12.50;99.90;;;;;;5054928;28;20081;-42
2021/10/30 05:10:11;;;;;;;9.50;8.50;;;12.50;99.90;;;;;;5049225;28;20023;-43
2021/10/30 05:12:37;;;;;;;8.63;7.68;;;12.50;99.90;;;;;;5057185;28;20501;-42
2021/10/30 05:15:03;;;;;;;11.75;8.45;;;12.50;99.90;;;;;;5048425;28;20025;-44
2021/10/30 05:17:28;;;;;;;8.95;7.78;;;12.50;99.90;;;;;;5057953;28;20495;-43
2021/10/30 05:19:54;;;;;;;11.10;8.75;;;12.50;99.90;;;;;;5046886;28;20380;-43
2021/10/30 05:22:19;;;;;;;9.48;7.90;;;12.50;99.90;;;;;;5059346;28;20028;-44
2021/10/30 05:24:48;;;;;;;9.93;7.47;;;12.50;99.90;;;;;;5046353;28;20506;-44
2021/10/30 05:27:15;;;;;;;10.10;7.72;;;12.50;99.90;;;;;;5058968;28;20064;-43
2021/10/30 05:29:40;;;;;;;10.45;7.97;;;12.50;99.90;;;;;;5046615;28;20033;-43
2021/10/30 05:32:06;;;;;;;8.90;7.63;;;12.50;99.90;;;;;;5058896;28;20051;-43
2021/10/30 05:34:32;;;;;;;9.57;7.68;;;12.50;99.90;;;;;;5046504;28;20464;-44
2021/10/30 05:36:57;;;;;;;9.63;7.32;;;12.50;99.90;;;;;;5056476;28;20025;-43
2021/10/30 05:39:23;;;;;;;9.05;6.93;;;12.50;99.90;;;;;;5049611;28;20017;-43
2021/10/30 05:41:52;;;;;;;9.57;7.88;;;12.50;99.90;;;;;;5052453;28;20016;-43
2021/10/30 05:44:18;;;;;;;8.70;6.85;;;12.50;99.90;;;;;;5051477;28;20492;-42
2021/10/30 05:46:43;;;;;;;9.77;8.25;;;12.40;99.90;;;;;;5050138;28;20029;-43
2021/10/30 05:49:10;;;;;;;7.53;6.45;;;12.40;99.90;;;;;;5053759;28;20501;-43
2021/10/30 05:51:36;;;;;;;8.60;7.50;;;12.40;99.90;;;;;;5048724;28;20169;-43
2021/10/30 05:54:02;;;;;;;9.82;7.20;;;12.40;99.90;;;;;;5056560;28;20108;-41
2021/10/30 05:56:28;;;;;;;8.50;6.75;;;12.40;99.90;;;;;;5063137;28;20535;-43
2021/10/30 05:58:54;;;;;;;7.47;6.28;;;12.40;99.90;;;;;;5054979;28;20025;-33
2021/10/30 06:01:19;;;;;;;11.30;6.30;;;12.40;99.90;;;;;;5064875;28;20761;-33
2021/10/30 06:03:45;;;;;;;9.25;6.90;;;12.40;99.90;;;;;;5054722;28;20024;-33
2021/10/30 06:06:11;;;;;;;8.43;6.65;;;12.40;99.90;;;;;;5067104;28;20033;-33
2021/10/30 06:08:36;;;;;;;7.55;6.75;;;12.40;99.90;;;;;;5052896;28;20036;-32
2021/10/30 06:11:02;;;;;;;7.88;6.45;;;12.40;99.90;;;;;;5066512;28;20028;-32
2021/10/30 06:13:27;;;;;;;8.50;6.65;;;12.40;99.90;;;;;;5054155;28;20025;-33
2021/10/30 06:15:53;;;;;;;9.07;6.90;;;12.40;99.90;;;;;;5064733;28;20035;-33
2021/10/30 06:18:18;;;;;;;8.27;6.45;;;12.40;99.90;;;;;;5056908;28;20168;-33
2021/10/30 06:20:45;;;;;;;7.50;6.25;;;12.40;99.90;;;;;;5062693;28;20020;-42
2021/10/30 06:23:15;;;;;;;10.48;7.10;;;12.40;99.90;;;;;;5058826;28;20021;-44
2021/10/30 06:25:43;;;;;;;7.45;6.65;;;12.40;99.90;;;;;;5060494;28;20159;-44
2021/10/30 06:28:09;;;;;;;9.95;7.15;;;12.40;99.90;;;;;;5061215;28;20064;-43
2021/10/30 06:30:34;;;;;;;10.20;8.38;;;12.40;99.90;;;;;;5057712;28;20556;-43
2021/10/30 06:33:00;;;;;;;7.88;6.80;;;12.30;99.90;;;;;;5063909;28;20051;-43
2021/10/30 06:35:25;;;;;;;12.18;6.88;;;12.40;99.90;;;;;;5055776;28;20024;-43
2021/10/30 06:37:57;;;;;;;8.10;6.53;;;12.30;99.90;;;;;;5063628;28;20377;-44
2021/10/30 06:40:23;;;;;;;8.35;7.03;;;12.30;99.90;;;;;;5054459;28;20040;-43
2021/10/30 06:42:49;;;;;;;7.18;6.10;;;12.30;99.90;;;;;;5064290;28;20016;-43
2021/10/30 06:45:15;;;;;;;6.72;5.80;;;12.30;99.90;;;;;;5054255;28;20036;-44
2021/10/30 06:47:41;;;;;;;7.65;6.45;;;12.30;99.90;;;;;;5065717;28;20794;-42
2021/10/30 06:50:21;;;;;;;9.98;7.60;;;12.30;99.90;;;;;;5050114;28;20040;-43
2021/10/30 06:52:52;;;;;;;9.07;7.53;;;12.30;99.90;;;;;;5065495;28;20033;-42
2021/10/30 06:55:19;;;;;;;9.25;7.20;;;12.30;99.90;;;;;;5057379;28;20058;-43
2021/10/30 06:57:46;;;;;;;10.23;7.32;;;12.30;99.90;;;;;;5068016;28;20024;-42
2021/10/30 07:00:13;;;;;;;9.77;7.10;;;12.30;99.90;;;;;;5056549;28;20024;-44
2021/10/30 07:02:40;;;;;;;8.38;6.75;;;12.30;99.90;;;;;;5068687;28;20503;-43
2021/10/30 07:05:07;;;;;;;9.57;7.20;;;12.30;99.90;;;;;;5057036;28;20553;-43
2021/10/30 07:07:33;;;;;;;9.82;5.93;;;12.30;99.90;;;;;;5067894;28;20029;-42
2021/10/30 07:09:59;;;;;;;8.40;6.13;;;12.30;99.90;;;;;;5059387;28;20427;-43
2021/10/30 07:12:33;;;;;;;8.27;6.15;;;12.30;99.90;;;;;;5064642;28;20713;-43
2021/10/30 07:14:59;;;;;;;8.68;6.43;;;12.30;99.90;;;;;;5060921;28;20037;-42
2021/10/30 07:17:24;;;;;;;9.20;7.28;;;12.30;99.90;;;;;;5063547;28;20023;-43
2021/10/30 07:19:52;;;;;;;10.93;7.15;;;12.30;99.90;;;;;;5062846;28;20081;-44
2021/10/30 07:22:18;;;;;;;8.43;6.32;;;12.30;99.90;;;;;;5061142;28;20029;-45
2021/10/30 07:24:44;;;;;;;9.18;7.43;;;12.30;99.90;;;;;;5065354;28;20043;-42
2021/10/30 07:27:10;;;;;;;7.32;6.10;;;12.30;99.90;;;;;;5058625;28;20074;-43
2021/10/30 07:29:36;;;;;;;9.05;6.70;;;12.30;99.90;;;;;;5066577;28;20476;-43
2021/10/30 07:32:02;;;;;;;9.25;7.28;;;12.30;99.90;;;;;;5057088;28;20028;-42
2021/10/30 07:34:28;;;;;;;10.73;7.57;;;12.30;99.90;;;;;;5066469;28;20024;-42
2021/10/30 07:36:54;;;;;;;10.13;7.40;;;12.40;99.90;;;;;;5056627;28;20536;-43
2021/10/30 07:39:20;;;;;;;14.93;7.63;;;12.40;99.90;;;;;;5068293;28;20086;-43
2021/10/30 07:41:46;;;;;;;8.75;6.63;;;12.40;99.90;;;;;;5054108;28;20408;-43
2021/10/30 07:44:11;;;;;;;9.80;6.25;;;12.40;99.90;;;;;;5066671;28;20032;-43
2021/10/30 07:46:39;;;;;;;9.40;6.80;;;12.40;99.90;;;;;;5054749;28;20043;-43
2021/10/30 07:49:04;;;;;;;7.85;6.35;;;12.50;99.90;;;;;;5068178;28;20429;-43
2021/10/30 07:51:30;;;;;;;7.82;5.70;;;12.50;99.90;;;;;;5057684;28;20059;-43
2021/10/30 07:53:56;;;;;;;9.13;6.88;;;12.40;99.90;;;;;;5064399;28;20025;-44
2021/10/30 07:56:22;;;;;;;9.73;6.13;;;12.50;99.90;;;;;;5059207;28;20072;-43
2021/10/30 07:58:48;;;;;;;9.68;7.25;;;12.50;99.90;;;;;;5049845;28;20053;-44
2021/10/30 08:01:15;;;;;;;8.30;6.28;;;12.50;99.90;;;;;;5052139;28;20619;-43
2021/10/30 08:03:41;;;;;;;7.50;6.57;;;12.60;99.90;;;;;;5060284;28;20404;-43
2021/10/30 08:06:07;;;;;;;7.45;6.68;;;12.60;99.90;;;;;;5066152;28;20523;-43
2021/10/30 08:08:33;;;;;;;10.50;7.15;;;12.60;99.90;;;;;;5056695;28;20031;-43
2021/10/30 08:10:59;;;;;;;9.02;7.20;;;12.50;99.90;;;;;;5060735;28;20016;-42
2021/10/30 08:13:25;;;;;;;8.65;6.47;;;12.60;99.90;;;;;;5059402;28;20009;-43
2021/10/30 08:15:51;;;;;;;10.15;7.03;;;12.60;99.90;;;;;;5048253;28;20089;-43
2021/10/30 08:18:16;;;;;;;6.55;5.85;;;12.60;99.90;;;;;;5059804;28;20032;-44
2021/10/30 08:20:42;;;;;;;7.43;5.45;;;12.60;99.90;;;;;;5047675;28;20120;-44
2021/10/30 08:23:07;;;;;;;8.32;6.22;;;12.70;99.90;;;;;;5060048;28;20423;-43
2021/10/30 08:25:33;;;;;;;7.75;6.57;;;12.70;99.90;;;;;;5048320;28;20562;-43
2021/10/30 08:28:00;;;;;;;7.03;5.70;;;12.70;99.90;;;;;;5059537;28;20036;-42
2021/10/30 08:30:26;;;;;;;6.60;5.25;;;12.70;99.90;;;;;;5047563;28;20035;-43
2021/10/30 08:32:51;;;;;;;7.20;5.80;;;12.70;99.90;;;;;;5056768;28;20381;-42
2021/10/30 08:35:17;;;;;;;7.68;5.82;;;12.80;99.90;;;;;;5050730;28;20086;-43
2021/10/30 08:37:43;;;;;;;6.68;5.55;;;12.70;99.90;;;;;;5053874;28;20048;-44
2021/10/30 08:40:14;;;;;;;7.18;5.63;;;12.80;99.90;;;;;;5053770;28;20032;-43
2021/10/30 08:42:48;;;;;;;6.32;4.60;;;12.80;99.90;;;;;;5052250;28;20065;-42
2021/10/30 08:45:15;;;;;;;5.45;4.80;;;12.80;99.90;;;;;;5053730;28;20636;-43
2021/10/30 08:47:48;;;;;;;5.35;4.78;;;12.90;99.90;;;;;;5051374;28;20021;-43
2021/10/30 08:50:14;;;;;;;6.22;4.95;;;12.90;99.90;;;;;;5055061;28;20091;-43
2021/10/30 08:52:40;;;;;;;5.22;4.72;;;12.90;99.90;;;;;;5046313;28;20047;-43
2021/10/30 08:55:07;;;;;;;8.68;5.07;;;12.90;99.90;;;;;;5041205;28;20514;-43
2021/10/30 08:57:34;;;;;;;5.90;4.72;;;12.90;99.90;;;;;;5047820;28;20472;-42
2021/10/30 09:00:18;;;;;;;5.80;4.65;;;12.90;99.90;;;;;;5058644;28;20060;-43
2021/10/30 09:02:44;;;;;;;5.22;4.72;;;12.90;99.90;;;;;;5048161;28;20375;-43
2021/10/30 09:05:20;;;;;;;6.22;5.03;;;12.90;99.90;;;;;;5057632;28;20472;-42
2021/10/30 09:07:46;;;;;;;7.47;5.50;;;13.00;99.90;;;;;;5047852;28;20039;-44
2021/10/30 09:10:41;;;;;;;7.03;4.32;;;13.00;99.90;;;;;;5058870;28;20017;-44
2021/10/30 09:13:12;;;;;;;5.38;4.60;;;13.00;99.90;;;;;;5034481;28;20032;-33
2021/10/30 09:15:43;;;;;;;4.85;4.28;;;13.00;99.90;;;;;;5058122;28;20448;-32
2021/10/30 09:18:37;;;;;;;5.93;4.90;;;13.00;99.90;;;;;;5047959;28;20027;-33
2021/10/30 09:21:02;;;;;;;4.57;3.97;;;13.00;99.90;;;;;;5047969;28;20035;-33
2021/10/30 09:23:38;;;;;;;6.72;5.05;;;13.10;99.90;;;;;;5064301;28;20028;-33
2021/10/30 09:26:05;;;;;;;6.30;4.80;;;13.10;99.90;;;;;;5044841;28;20044;-32
2021/10/30 09:28:36;;;;;;;7.68;4.90;;;13.10;99.90;;;;;;5065296;28;20504;-34
2021/10/30 09:31:02;;;;;;;5.78;4.60;;;13.10;99.90;;;;;;5055470;28;20062;-34
2021/10/30 09:33:30;;;;;;;5.80;4.75;;;13.10;99.90;;;;;;5064432;28;20025;-32
2021/10/30 09:35:57;;;;;;;6.22;4.90;;;13.10;99.90;;;;;;5054479;28;20025;-34
2021/10/30 09:38:33;;;;;;;6.05;4.75;;;13.10;99.90;;;;;;5046084;28;20035;-34
2021/10/30 09:41:03;;;;;;;5.82;4.65;;;13.10;99.90;;;;;;5052997;28;20024;-34
2021/10/30 09:43:30;;;;;;;6.32;4.50;;;13.10;99.90;;;;;;5066665;28;20063;-33
2021/10/30 09:46:04;;;;;;;6.35;5.75;;;13.10;99.90;;;;;;5053598;28;20071;-33
2021/10/30 09:48:32;;;;;;;7.80;5.00;;;13.20;99.90;;;;;;5065834;28;20024;-33
2021/10/30 09:50:59;;;;;;;6.72;4.50;;;13.20;99.90;;;;;;5053819;28;20036;-34
2021/10/30 09:53:24;;;;;;;4.82;3.63;;;13.20;99.90;;;;;;5065234;28;20736;-33
2021/10/30 09:56:09;;;;;;;5.25;4.38;;;13.30;99.90;;;;;;5062243;28;20056;-34
2021/10/30 09:58:47;;;;;;;4.47;4.05;;;13.30;99.90;;;;;;5066257;28;20028;-33
2021/10/30 10:01:15;;;;;;;5.00;4.22;;;13.30;99.90;;;;;;5055510;28;20128;-33
2021/10/30 10:03:44;;;;;;;4.05;3.50;;;13.30;99.90;;;;;;5045970;28;20029;-32
2021/10/30 10:06:14;;;;;;;6.65;4.07;;;13.30;99.90;;;;;;5057541;28;20476;-33
2021/10/30 10:08:41;;;;;;;5.95;3.90;;;13.30;99.90;;;;;;5045652;28;20024;-33
2021/10/30 10:11:12;;;;;;;3.78;3.47;;;13.30;99.90;;;;;;5055476;28;20104;-33
2021/10/30 10:13:40;;;;;;;5.07;3.63;;;13.40;99.90;;;;;;5048027;28;20405;-33
2021/10/30 10:16:11;;;;;;;4.68;3.70;;;13.40;99.90;;;;;;5053027;28;20464;-33
2021/10/30 10:18:37;;;;;;;5.22;4.00;;;13.40;99.90;;;;;;5050285;28;20021;-32
2021/10/30 10:21:04;;;;;;;4.95;3.92;;;13.40;99.90;;;;;;5051645;28;20308;-33
2021/10/30 10:23:30;;;;;;;4.72;4.15;;;13.40;99.90;;;;;;5051588;28;20021;-32
2021/10/30 10:25:56;;;;;;;4.93;4.43;;;13.40;99.90;;;;;;5048969;28;20029;-33
2021/10/30 10:28:34;;;;;;;5.72;4.95;;;13.40;99.90;;;;;;5054362;28;20021;-31
2021/10/30 10:31:11;;;;;;;5.82;3.70;;;13.40;99.90;;;;;;5049259;28;20115;-43
2021/10/30 10:33:47;;;;;;;3.90;3.50;;;13.40;99.90;;;;;;5058341;28;20435;-43
2021/10/30 10:36:21;;;;;;;4.32;3.72;;;13.40;99.90;;;;;;5052371;28;20037;-43
2021/10/30 10:38:58;;;;;;;4.68;3.88;;;13.40;99.90;;;;;;5058575;28;20078;-43
2021/10/30 10:41:46;;;;;;;6.60;4.22;;;13.40;99.90;;;;;;5052879;28;20017;-43
2021/10/30 10:44:13;;;;;;;4.82;3.65;;;13.40;99.90;;;;;;5055844;28;20033;-43
2021/10/30 10:46:48;;;;;;;4.32;3.92;;;13.40;99.90;;;;;;5053042;28;20039;-43
2021/10/30 10:52:16;;;;;;;5.97;4.22;;;13.40;99.90;;;;;;5055691;28;20036;-43
2021/10/30 10:55:01;;;;;;;7.07;4.50;;;13.40;99.90;;;;;;5054053;28;20029;-43
2021/10/30 10:57:34;;;;;;;4.25;3.83;;;13.40;99.90;;;;;;5061493;28;20032;-43
2021/10/30 11:00:08;;;;;;;5.60;3.67;;;13.40;99.90;;;;;;5057225;28;20048;-42
2021/10/30 11:02:51;;;;;;;4.20;3.65;;;13.40;99.90;;;;;;5048223;28;20021;-44
2021/10/30 11:05:21;;;;;;;4.55;4.13;;;13.40;99.90;;;;;;5052233;28;20652;-43
2021/10/30 11:07:49;;;;;;;4.28;3.50;;;13.40;99.90;;;;;;5056421;28;20111;-45
2021/10/30 11:10:23;;;;;;;4.65;3.63;;;13.50;99.90;;;;;;5054650;28;20593;-42
2021/10/30 11:13:09;;;;;;;4.43;3.95;;;13.50;99.90;;;;;;5054912;28;20029;-43
2021/10/30 11:15:41;;;;;;;4.80;4.30;;;13.50;99.90;;;;;;5052216;28;20471;-44
2021/10/30 11:18:27;;;;;;;5.07;3.97;;;13.50;99.90;;;;;;5055916;28;20024;-43
2021/10/30 11:21:18;;;;;;;4.05;3.65;;;13.50;99.90;;;;;;5051929;28;20041;-44
2021/10/30 11:23:49;;;;;;;3.65;3.35;;;13.50;99.90;;;;;;5059433;28;20025;-34
2021/10/30 11:26:26;;;;;;;4.35;3.58;;;13.50;99.90;;;;;;5068604;28;20033;-33
2021/10/30 11:28:52;;;;;;;5.30;3.90;;;13.60;99.90;;;;;;5058740;28;20013;-33
2021/10/30 11:31:20;;;;;;;4.65;4.15;;;13.60;99.90;;;;;;5067885;28;20078;-35
2021/10/30 11:33:59;;;;;;;4.28;3.88;;;13.50;99.90;;;;;;5060031;28;20083;-33
2021/10/30 11:36:25;;;;;;;6.90;4.28;;;13.60;99.90;;;;;;5066322;28;20464;-33
2021/10/30 11:38:54;;;;;;;5.25;3.70;;;13.60;99.90;;;;;;5060883;28;20031;-35
2021/10/30 11:41:25;;;;;;;4.93;3.95;;;13.60;99.90;;;;;;5064815;28;20025;-33
2021/10/30 11:43:57;;;;;;;3.45;3.15;;;13.60;99.90;;;;;;5061745;28;20071;-42
2021/10/30 11:46:23;;;;;;;5.72;4.07;;;13.60;99.90;;;;;;5062468;28;20484;-43
2021/10/30 11:48:55;;;;;;;3.60;3.30;;;13.70;99.90;;;;;;5063766;28;20020;-44
2021/10/30 11:51:41;;;;;;;4.50;3.22;;;13.70;99.90;;;;;;5062018;28;20060;-45
2021/10/30 11:54:09;;;;;;;4.57;3.60;;;13.80;99.90;;;;;;5062581;28;20104;-44
2021/10/30 11:56:35;;;;;;;5.40;3.85;;;13.80;99.90;;;;;;5048449;28;20060;-44
2021/10/30 11:59:04;;;;;;;5.32;3.70;;;13.80;99.90;;;;;;5051569;28;20029;-42
2021/10/30 12:01:36;;;;;;;4.43;3.30;;;13.90;99.90;;;;;;5056605;28;20025;-43
2021/10/30 12:04:01;;;;;;;3.40;3.10;;;14.00;99.90;;;;;;5050440;28;20029;-43
2021/10/30 12:06:28;;;;;;;3.50;3.20;;;14.00;99.90;;;;;;5057371;28;20047;-43
2021/10/30 12:08:57;;;;;;;4.00;3.55;;;14.10;99.90;;;;;;5049156;28;20021;-43
2021/10/30 12:11:27;;;;;;;3.22;2.92;;;14.10;99.90;;;;;;5059531;28;20118;-44
2021/10/30 12:13:59;;;;;;;5.45;3.30;;;14.10;99.90;;;;;;5048661;28;20033;-43
2021/10/30 12:16:28;;;;;;;2.90;2.60;;;14.10;99.90;;;;;;5058981;28;20020;-43
2021/10/30 12:19:01;;;;;;;5.22;3.38;;;14.10;99.90;;;;;;5048601;28;20029;-43
2021/10/30 12:21:35;;;;;;;4.53;3.40;;;14.20;99.90;;;;;;5058634;28;20036;-43
2021/10/30 12:24:03;;;;;;;4.40;3.58;;;14.20;99.90;;;;;;5059141;28;20036;-43
2021/10/30 12:26:55;;;;;;;4.00;3.60;;;14.20;99.90;;;;;;5053978;28;20400;-43
2021/10/30 12:29:23;;;;;;;3.25;2.95;;;14.20;99.90;;;;;;5066867;28;20157;-44
2021/10/30 12:32:07;;;;;;;3.45;3.15;;;14.30;99.90;;;;;;5055336;28;20032;-43
2021/10/30 12:34:34;;;;;;;3.38;2.80;;;14.40;99.90;;;;;;5048730;28;20029;-42
2021/10/30 12:37:05;;;;;;;3.88;2.97;;;14.50;99.90;;;;;;5054826;28;20052;-43
2021/10/30 12:39:31;;;;;;;3.90;3.08;;;14.50;99.90;;;;;;5047589;28;20465;-43
2021/10/30 12:42:09;;;;;;;3.17;2.88;;;14.60;99.90;;;;;;5059828;28;20075;-43
2021/10/30 12:44:38;;;;;;;3.42;3.03;;;14.60;99.90;;;;;;5047779;28;20369;-43
2021/10/30 12:47:14;;;;;;;4.38;3.97;;;14.70;99.90;;;;;;5059837;28;20036;-43
2021/10/30 12:49:43;;;;;;;3.75;3.33;;;14.70;99.90;;;;;;5046532;28;20756;-43
2021/10/30 12:52:14;;;;;;;4.15;3.33;;;14.70;99.90;;;;;;5060368;28;20029;-43
2021/10/30 12:54:50;;;;;;;4.72;3.45;;;14.70;99.90;;;;;;5046424;28;20064;-43